sensor_id;sensor_type;location;lat;lon;timestamp;temperature;humidity
27633;DHT22;15046;50.930;13.334;2024-03-25T00:01:07;3.90;99.90
27633;DHT22;15046;50.930;13.334;2024-03-25T00:03:33;3.90;99.90
27633;DHT22;15046;50.930;13.334;2024-03-25T00:05:59;3.80;99.90
27633;DHT22;15046;50.930;13.334;2024-03-25T00:08:25;3.80;99.90
27633;DHT22;15046;50.930;13.334;2024-03-25T00:10:51;3.70;99.90
27633;DHT22;15046;50.930;13.334;2024-03-25T00:13:17;3.70;99.90
27633;DHT22;15046;50.930;13.334;2024-03-25T00:15:45;3.70;99.90
27633;DHT22;15046;50.930;13.334;2024-03-25T00:18:11;3.70;99.90
27633;DHT22;15046;50.930;13.334;2024-03-25T00:20:37;3.60;99.90
27633;DHT22;15046;50.930;13.334;2024-03-25T00:23:03;3.60;99.90
27633;DHT22;15046;50.930;13.334;2024-03-25T00:25:29;3.50;99.90
27633;DHT22;15046;50.930;13.334;2024-03-25T00:27:55;3.40;99.90
27633;DHT22;15046;50.930;13.334;2024-03-25T00:30:22;3.40;99.90
27633;DHT22;15046;50.930;13.334;2024-03-25T00:32:48;3.40;99.90
27633;DHT22;15046;50.930;13.334;2024-03-25T00:35:14;3.40;99.90
27633;DHT22;15046;50.930;13.334;2024-03-25T00:37:39;3.40;99.90
27633;DHT22;15046;50.930;13.334;2024-03-25T00:40:06;3.40;99.90
27633;DHT22;15046;50.930;13.334;2024-03-25T00:42:33;3.40;99.90
27633;DHT22;15046;50.930;13.334;2024-03-25T00:44:59;3.50;99.90
27633;DHT22;15046;50.930;13.334;2024-03-25T00:47:25;3.50;99.90
27633;DHT22;15046;50.930;13.334;2024-03-25T00:49:51;3.50;99.90
27633;DHT22;15046;50.930;13.334;2024-03-25T00:52:17;3.50;99.90
27633;DHT22;15046;50.930;13.334;2024-03-25T00:54:43;3.50;99.90
27633;DHT22;15046;50.930;13.334;2024-03-25T00:57:09;3.50;99.90
27633;DHT22;15046;50.930;13.334;2024-03-25T00:59:37;3.50;99.90
27633;DHT22;15046;50.930;13.334;2024-03-25T01:02:03;3.50;99.90
27633;DHT22;15046;50.930;13.334;2024-03-25T01:04:29;3.40;99.90
27633;DHT22;15046;50.930;13.334;2024-03-25T01:06:55;3.30;99.90
27633;DHT22;15046;50.930;13.334;2024-03-25T01:09:20;3.20;99.90
27633;DHT22;15046;50.930;13.334;2024-03-25T01:11:47;3.00;99.90
27633;DHT22;15046;50.930;13.334;2024-03-25T01:14:13;2.90;99.90
27633;DHT22;15046;50.930;13.334;2024-03-25T01:16:40;2.90;99.90
27633;DHT22;15046;50.930;13.334;2024-03-25T01:19:07;2.90;99.90
27633;DHT22;15046;50.930;13.334;2024-03-25T01:21:33;2.80;99.90
27633;DHT22;15046;50.930;13.334;2024-03-25T01:23:59;2.80;99.90
27633;DHT22;15046;50.930;13.334;2024-03-25T01:26:24;2.80;99.90
27633;DHT22;15046;50.930;13.334;2024-03-25T01:28:50;2.80;99.90
27633;DHT22;15046;50.930;13.334;2024-03-25T01:31:16;2.90;99.90
27633;DHT22;15046;50.930;13.334;2024-03-25T01:33:42;2.90;99.90
27633;DHT22;15046;50.930;13.334;2024-03-25T01:36:08;3.00;99.90
27633;DHT22;15046;50.930;13.334;2024-03-25T01:38:36;3.00;99.90
27633;DHT22;15046;50.930;13.334;2024-03-25T01:41:10;3.10;99.90
27633;DHT22;15046;50.930;13.334;2024-03-25T01:43:36;3.20;99.90
27633;DHT22;15046;50.930;13.334;2024-03-25T01:46:02;3.20;99.90
27633;DHT22;15046;50.930;13.334;2024-03-25T01:48:29;3.20;99.90
27633;DHT22;15046;50.930;13.334;2024-03-25T01:50:55;3.20;99.90
27633;DHT22;15046;50.930;13.334;2024-03-25T01:53:23;3.20;99.90
27633;DHT22;15046;50.930;13.334;2024-03-25T01:55:51;3.20;99.90
27633;DHT22;15046;50.930;13.334;2024-03-25T01:58:19;3.20;99.90
27633;DHT22;15046;50.930;13.334;2024-03-25T02:00:45;3.20;99.90
27633;DHT22;15046;50.930;13.334;2024-03-25T02:03:11;3.20;99.90
27633;DHT22;15046;50.930;13.334;2024-03-25T02:05:38;3.20;99.90
27633;DHT22;15046;50.930;13.334;2024-03-25T02:08:04;3.20;99.90
27633;DHT22;15046;50.930;13.334;2024-03-25T02:10:32;3.20;99.90
27633;DHT22;15046;50.930;13.334;2024-03-25T02:12:58;3.20;99.90
27633;DHT22;15046;50.930;13.334;2024-03-25T02:15:24;3.20;99.90
27633;DHT22;15046;50.930;13.334;2024-03-25T02:17:52;3.20;99.90
27633;DHT22;15046;50.930;13.334;2024-03-25T02:20:18;3.20;99.90
27633;DHT22;15046;50.930;13.334;2024-03-25T02:22:44;3.30;99.90
27633;DHT22;15046;50.930;13.334;2024-03-25T02:25:10;3.30;99.90
27633;DHT22;15046;50.930;13.334;2024-03-25T02:27:37;3.30;99.90
27633;DHT22;15046;50.930;13.334;2024-03-25T02:30:08;3.30;99.90
27633;DHT22;15046;50.930;13.334;2024-03-25T02:32:36;3.30;99.90
27633;DHT22;15046;50.930;13.334;2024-03-25T02:35:04;3.30;99.90
27633;DHT22;15046;50.930;13.334;2024-03-25T02:37:31;3.30;99.90
27633;DHT22;15046;50.930;13.334;2024-03-25T02:39:59;3.40;99.90
27633;DHT22;15046;50.930;13.334;2024-03-25T02:42:26;3.40;99.90
27633;DHT22;15046;50.930;13.334;2024-03-25T02:44:56;3.40;99.90
27633;DHT22;15046;50.930;13.334;2024-03-25T02:47:23;3.40;99.90
27633;DHT22;15046;50.930;13.334;2024-03-25T02:49:49;3.40;99.90
27633;DHT22;15046;50.930;13.334;2024-03-25T02:52:15;3.40;99.90
27633;DHT22;15046;50.930;13.334;2024-03-25T02:54:41;3.40;99.90
27633;DHT22;15046;50.930;13.334;2024-03-25T02:57:07;3.40;99.90
27633;DHT22;15046;50.930;13.334;2024-03-25T02:59:33;3.40;99.90
27633;DHT22;15046;50.930;13.334;2024-03-25T03:01:59;3.40;99.90
27633;DHT22;15046;50.930;13.334;2024-03-25T03:04:25;3.40;99.90
27633;DHT22;15046;50.930;13.334;2024-03-25T03:06:50;3.40;99.90
27633;DHT22;15046;50.930;13.334;2024-03-25T03:09:16;3.40;99.90
27633;DHT22;15046;50.930;13.334;2024-03-25T03:11:42;3.40;99.90
27633;DHT22;15046;50.930;13.334;2024-03-25T03:14:08;3.50;99.90
27633;DHT22;15046;50.930;13.334;2024-03-25T03:16:34;3.40;99.90
27633;DHT22;15046;50.930;13.334;2024-03-25T03:19:01;3.50;99.90
27633;DHT22;15046;50.930;13.334;2024-03-25T03:21:27;3.50;99.90
27633;DHT22;15046;50.930;13.334;2024-03-25T03:23:53;3.50;99.90
27633;DHT22;15046;50.930;13.334;2024-03-25T03:26:18;3.50;99.90
27633;DHT22;15046;50.930;13.334;2024-03-25T03:28:44;3.50;99.90
27633;DHT22;15046;50.930;13.334;2024-03-25T03:31:10;3.50;99.90
27633;DHT22;15046;50.930;13.334;2024-03-25T03:33:36;3.50;99.90
27633;DHT22;15046;50.930;13.334;2024-03-25T03:36:02;3.50;99.90
27633;DHT22;15046;50.930;13.334;2024-03-25T03:38:28;3.50;99.90
27633;DHT22;15046;50.930;13.334;2024-03-25T03:41:01;3.50;99.90
27633;DHT22;15046;50.930;13.334;2024-03-25T03:43:27;3.50;99.90
27633;DHT22;15046;50.930;13.334;2024-03-25T03:45:53;3.60;99.90
27633;DHT22;15046;50.930;13.334;2024-03-25T03:48:19;3.50;99.90
27633;DHT22;15046;50.930;13.334;2024-03-25T03:50:45;3.50;99.90
27633;DHT22;15046;50.930;13.334;2024-03-25T03:53:11;3.50;99.90
27633;DHT22;15046;50.930;13.334;2024-03-25T03:55:37;3.50;99.90
27633;DHT22;15046;50.930;13.334;2024-03-25T03:58:03;3.50;99.90
27633;DHT22;15046;50.930;13.334;2024-03-25T04:00:29;3.50;99.90
27633;DHT22;15046;50.930;13.334;2024-03-25T04:02:58;3.50;99.90
27633;DHT22;15046;50.930;13.334;2024-03-25T04:05:27;3.50;99.90
27633;DHT22;15046;50.930;13.334;2024-03-25T04:07:53;3.60;99.90
27633;DHT22;15046;50.930;13.334;2024-03-25T04:10:19;3.60;99.90
27633;DHT22;15046;50.930;13.334;2024-03-25T04:12:45;3.50;99.90
27633;DHT22;15046;50.930;13.334;2024-03-25T04:15:12;3.50;99.90
27633;DHT22;15046;50.930;13.334;2024-03-25T04:17:44;3.50;99.90
27633;DHT22;15046;50.930;13.334;2024-03-25T04:20:11;3.50;99.90
27633;DHT22;15046;50.930;13.334;2024-03-25T04:22:41;3.50;99.90
27633;DHT22;15046;50.930;13.334;2024-03-25T04:25:08;3.50;99.90
27633;DHT22;15046;50.930;13.334;2024-03-25T04:27:38;3.50;99.90
27633;DHT22;15046;50.930;13.334;2024-03-25T04:30:07;3.50;99.90
27633;DHT22;15046;50.930;13.334;2024-03-25T04:32:34;3.50;99.90
27633;DHT22;15046;50.930;13.334;2024-03-25T04:35:01;3.60;99.90
27633;DHT22;15046;50.930;13.334;2024-03-25T04:37:27;3.50;99.90
27633;DHT22;15046;50.930;13.334;2024-03-25T04:39:56;3.60;99.90
27633;DHT22;15046;50.930;13.334;2024-03-25T04:42:22;3.60;99.90
27633;DHT22;15046;50.930;13.334;2024-03-25T04:44:49;3.50;99.90
27633;DHT22;15046;50.930;13.334;2024-03-25T04:47:16;3.50;99.90
27633;DHT22;15046;50.930;13.334;2024-03-25T04:49:43;3.50;99.90
27633;DHT22;15046;50.930;13.334;2024-03-25T04:52:09;3.50;99.90
27633;DHT22;15046;50.930;13.334;2024-03-25T04:54:35;3.50;99.90
27633;DHT22;15046;50.930;13.334;2024-03-25T04:57:00;3.50;99.90
27633;DHT22;15046;50.930;13.334;2024-03-25T04:59:26;3.50;99.90
27633;DHT22;15046;50.930;13.334;2024-03-25T05:01:52;3.50;99.90
27633;DHT22;15046;50.930;13.334;2024-03-25T05:04:18;3.50;99.90
27633;DHT22;15046;50.930;13.334;2024-03-25T05:06:46;3.50;99.90
27633;DHT22;15046;50.930;13.334;2024-03-25T05:09:12;3.50;99.90
27633;DHT22;15046;50.930;13.334;2024-03-25T05:11:37;3.50;99.90
27633;DHT22;15046;50.930;13.334;2024-03-25T05:14:03;3.50;99.90
27633;DHT22;15046;50.930;13.334;2024-03-25T05:16:29;3.50;99.90
27633;DHT22;15046;50.930;13.334;2024-03-25T05:18:56;3.50;99.90
27633;DHT22;15046;50.930;13.334;2024-03-25T05:21:22;3.50;99.90
27633;DHT22;15046;50.930;13.334;2024-03-25T05:23:48;3.50;99.90
27633;DHT22;15046;50.930;13.334;2024-03-25T05:26:14;3.50;99.90
27633;DHT22;15046;50.930;13.334;2024-03-25T05:28:40;3.50;99.90
27633;DHT22;15046;50.930;13.334;2024-03-25T05:31:09;3.50;99.90
27633;DHT22;15046;50.930;13.334;2024-03-25T05:33:36;3.50;99.90
27633;DHT22;15046;50.930;13.334;2024-03-25T05:36:03;3.50;99.90
27633;DHT22;15046;50.930;13.334;2024-03-25T05:38:29;3.50;99.90
27633;DHT22;15046;50.930;13.334;2024-03-25T05:40:55;3.50;99.90
27633;DHT22;15046;50.930;13.334;2024-03-25T05:43:22;3.60;99.90
27633;DHT22;15046;50.930;13.334;2024-03-25T05:45:52;3.60;99.90
27633;DHT22;15046;50.930;13.334;2024-03-25T05:48:19;3.60;99.90
27633;DHT22;15046;50.930;13.334;2024-03-25T05:50:46;3.60;99.90
27633;DHT22;15046;50.930;13.334;2024-03-25T05:53:12;3.60;99.90
27633;DHT22;15046;50.930;13.334;2024-03-25T05:55:38;3.60;99.90
27633;DHT22;15046;50.930;13.334;2024-03-25T05:58:04;3.60;99.90
27633;DHT22;15046;50.930;13.334;2024-03-25T06:00:30;3.50;99.90
27633;DHT22;15046;50.930;13.334;2024-03-25T06:02:59;3.50;99.90
27633;DHT22;15046;50.930;13.334;2024-03-25T06:05:24;3.60;99.90
27633;DHT22;15046;50.930;13.334;2024-03-25T06:07:51;3.60;99.90
27633;DHT22;15046;50.930;13.334;2024-03-25T06:10:17;3.60;99.90
27633;DHT22;15046;50.930;13.334;2024-03-25T06:12:43;3.60;99.90
27633;DHT22;15046;50.930;13.334;2024-03-25T06:15:09;3.60;99.90
27633;DHT22;15046;50.930;13.334;2024-03-25T06:17:34;3.60;99.90
27633;DHT22;15046;50.930;13.334;2024-03-25T06:20:00;3.60;99.90
27633;DHT22;15046;50.930;13.334;2024-03-25T06:22:26;3.70;99.90
27633;DHT22;15046;50.930;13.334;2024-03-25T06:24:52;3.70;99.90
27633;DHT22;15046;50.930;13.334;2024-03-25T06:27:18;3.80;99.90
27633;DHT22;15046;50.930;13.334;2024-03-25T06:29:45;3.80;99.90
27633;DHT22;15046;50.930;13.334;2024-03-25T06:32:12;3.80;99.90
27633;DHT22;15046;50.930;13.334;2024-03-25T06:34:56;3.80;99.90
27633;DHT22;15046;50.930;13.334;2024-03-25T06:37:26;3.80;99.90
27633;DHT22;15046;50.930;13.334;2024-03-25T06:39:52;3.80;99.90
27633;DHT22;15046;50.930;13.334;2024-03-25T06:42:18;3.80;99.90
27633;DHT22;15046;50.930;13.334;2024-03-25T06:44:44;3.90;99.90
27633;DHT22;15046;50.930;13.334;2024-03-25T06:47:15;3.90;99.90
27633;DHT22;15046;50.930;13.334;2024-03-25T06:49:40;4.10;99.90
27633;DHT22;15046;50.930;13.334;2024-03-25T06:52:06;4.20;99.90
27633;DHT22;15046;50.930;13.334;2024-03-25T06:54:32;4.20;99.90
27633;DHT22;15046;50.930;13.334;2024-03-25T06:56:58;4.30;99.90
27633;DHT22;15046;50.930;13.334;2024-03-25T06:59:24;4.40;99.90
27633;DHT22;15046;50.930;13.334;2024-03-25T07:01:50;4.40;99.90
27633;DHT22;15046;50.930;13.334;2024-03-25T07:04:15;4.50;99.90
27633;DHT22;15046;50.930;13.334;2024-03-25T07:06:41;4.60;99.90
27633;DHT22;15046;50.930;13.334;2024-03-25T07:09:07;4.60;99.90
27633;DHT22;15046;50.930;13.334;2024-03-25T07:11:36;4.60;99.90
27633;DHT22;15046;50.930;13.334;2024-03-25T07:14:02;4.60;99.90
27633;DHT22;15046;50.930;13.334;2024-03-25T07:16:28;4.60;99.90
27633;DHT22;15046;50.930;13.334;2024-03-25T07:18:54;4.60;99.90
27633;DHT22;15046;50.930;13.334;2024-03-25T07:21:19;4.60;99.90
27633;DHT22;15046;50.930;13.334;2024-03-25T07:23:45;4.50;99.90
27633;DHT22;15046;50.930;13.334;2024-03-25T07:26:11;4.50;99.90
27633;DHT22;15046;50.930;13.334;2024-03-25T07:28:37;4.60;99.90
27633;DHT22;15046;50.930;13.334;2024-03-25T07:31:03;4.60;99.90
27633;DHT22;15046;50.930;13.334;2024-03-25T07:33:28;4.60;99.90
27633;DHT22;15046;50.930;13.334;2024-03-25T07:35:54;4.60;99.90
27633;DHT22;15046;50.930;13.334;2024-03-25T07:38:20;4.60;99.90
27633;DHT22;15046;50.930;13.334;2024-03-25T07:40:46;4.60;99.90
27633;DHT22;15046;50.930;13.334;2024-03-25T07:43:12;4.70;99.90
27633;DHT22;15046;50.930;13.334;2024-03-25T07:45:38;4.70;99.90
27633;DHT22;15046;50.930;13.334;2024-03-25T07:48:05;4.70;99.90
27633;DHT22;15046;50.930;13.334;2024-03-25T07:50:33;4.80;99.90
27633;DHT22;15046;50.930;13.334;2024-03-25T07:52:59;4.80;99.90
27633;DHT22;15046;50.930;13.334;2024-03-25T07:55:25;4.80;99.90
27633;DHT22;15046;50.930;13.334;2024-03-25T07:57:50;4.80;99.90
27633;DHT22;15046;50.930;13.334;2024-03-25T08:00:16;4.80;99.90
27633;DHT22;15046;50.930;13.334;2024-03-25T08:02:42;4.90;99.90
27633;DHT22;15046;50.930;13.334;2024-03-25T08:05:08;5.00;99.90
27633;DHT22;15046;50.930;13.334;2024-03-25T08:07:34;5.00;99.90
27633;DHT22;15046;50.930;13.334;2024-03-25T08:10:00;5.00;99.90
27633;DHT22;15046;50.930;13.334;2024-03-25T08:12:26;5.00;99.90
27633;DHT22;15046;50.930;13.334;2024-03-25T08:14:51;5.00;99.90
27633;DHT22;15046;50.930;13.334;2024-03-25T08:17:17;5.00;99.90
27633;DHT22;15046;50.930;13.334;2024-03-25T08:19:43;5.00;99.90
27633;DHT22;15046;50.930;13.334;2024-03-25T08:22:09;4.90;99.90
27633;DHT22;15046;50.930;13.334;2024-03-25T08:24:35;4.90;99.90
27633;DHT22;15046;50.930;13.334;2024-03-25T08:27:01;4.90;99.90
27633;DHT22;15046;50.930;13.334;2024-03-25T08:29:26;5.10;99.90
27633;DHT22;15046;50.930;13.334;2024-03-25T08:31:52;5.20;99.90
27633;DHT22;15046;50.930;13.334;2024-03-25T08:34:18;5.40;99.90
27633;DHT22;15046;50.930;13.334;2024-03-25T08:36:44;5.60;99.90
27633;DHT22;15046;50.930;13.334;2024-03-25T08:39:11;5.80;99.90
27633;DHT22;15046;50.930;13.334;2024-03-25T08:41:37;5.80;99.90
27633;DHT22;15046;50.930;13.334;2024-03-25T08:44:03;5.90;99.90
27633;DHT22;15046;50.930;13.334;2024-03-25T08:46:29;5.80;99.90
27633;DHT22;15046;50.930;13.334;2024-03-25T08:48:55;5.70;99.90
27633;DHT22;15046;50.930;13.334;2024-03-25T08:51:20;5.60;99.90
27633;DHT22;15046;50.930;13.334;2024-03-25T08:53:46;5.50;99.90
27633;DHT22;15046;50.930;13.334;2024-03-25T08:56:13;5.40;99.90
27633;DHT22;15046;50.930;13.334;2024-03-25T08:58:39;5.40;99.90
27633;DHT22;15046;50.930;13.334;2024-03-25T09:01:05;5.40;99.90
27633;DHT22;15046;50.930;13.334;2024-03-25T09:03:30;5.40;99.90
27633;DHT22;15046;50.930;13.334;2024-03-25T09:05:56;5.40;99.90
27633;DHT22;15046;50.930;13.334;2024-03-25T09:08:22;5.40;99.90
27633;DHT22;15046;50.930;13.334;2024-03-25T09:10:48;5.50;99.90
27633;DHT22;15046;50.930;13.334;2024-03-25T09:13:32;5.60;99.90
27633;DHT22;15046;50.930;13.334;2024-03-25T09:15:58;5.70;99.90
27633;DHT22;15046;50.930;13.334;2024-03-25T09:18:23;5.90;99.90
27633;DHT22;15046;50.930;13.334;2024-03-25T09:20:49;6.20;99.90
27633;DHT22;15046;50.930;13.334;2024-03-25T09:23:15;6.30;99.90
27633;DHT22;15046;50.930;13.334;2024-03-25T09:25:51;6.40;99.90
27633;DHT22;15046;50.930;13.334;2024-03-25T09:28:17;6.70;99.90
27633;DHT22;15046;50.930;13.334;2024-03-25T09:30:43;6.80;99.90
27633;DHT22;15046;50.930;13.334;2024-03-25T09:33:09;6.90;99.90
27633;DHT22;15046;50.930;13.334;2024-03-25T09:35:35;7.10;99.90
27633;DHT22;15046;50.930;13.334;2024-03-25T09:38:02;7.20;99.90
27633;DHT22;15046;50.930;13.334;2024-03-25T09:40:28;7.30;99.90
27633;DHT22;15046;50.930;13.334;2024-03-25T09:42:58;7.40;99.90
27633;DHT22;15046;50.930;13.334;2024-03-25T09:45:29;7.50;99.90
27633;DHT22;15046;50.930;13.334;2024-03-25T09:47:55;7.60;99.90
27633;DHT22;15046;50.930;13.334;2024-03-25T09:50:21;7.70;99.90
27633;DHT22;15046;50.930;13.334;2024-03-25T09:52:48;7.70;99.90
27633;DHT22;15046;50.930;13.334;2024-03-25T09:55:14;7.60;99.90
27633;DHT22;15046;50.930;13.334;2024-03-25T09:57:44;7.40;99.90
27633;DHT22;15046;50.930;13.334;2024-03-25T10:00:10;7.30;99.90
27633;DHT22;15046;50.930;13.334;2024-03-25T10:02:38;7.10;99.90
27633;DHT22;15046;50.930;13.334;2024-03-25T10:05:05;7.00;99.90
27633;DHT22;15046;50.930;13.334;2024-03-25T10:07:31;6.90;99.90
27633;DHT22;15046;50.930;13.334;2024-03-25T10:09:57;6.90;99.90
27633;DHT22;15046;50.930;13.334;2024-03-25T10:12:24;7.00;99.90
27633;DHT22;15046;50.930;13.334;2024-03-25T10:14:52;7.00;99.90
27633;DHT22;15046;50.930;13.334;2024-03-25T10:17:18;7.30;99.90
27633;DHT22;15046;50.930;13.334;2024-03-25T10:19:44;7.90;99.90
27633;DHT22;15046;50.930;13.334;2024-03-25T10:22:10;8.30;99.90
27633;DHT22;15046;50.930;13.334;2024-03-25T10:24:45;8.20;99.90
27633;DHT22;15046;50.930;13.334;2024-03-25T10:27:22;8.00;99.90
27633;DHT22;15046;50.930;13.334;2024-03-25T10:29:56;8.00;99.90
27633;DHT22;15046;50.930;13.334;2024-03-25T10:32:22;8.00;99.90
27633;DHT22;15046;50.930;13.334;2024-03-25T10:34:50;8.10;99.90
27633;DHT22;15046;50.930;13.334;2024-03-25T10:37:18;8.50;99.90
27633;DHT22;15046;50.930;13.334;2024-03-25T10:39:50;8.90;99.90
27633;DHT22;15046;50.930;13.334;2024-03-25T10:42:20;9.10;99.90
27633;DHT22;15046;50.930;13.334;2024-03-25T10:44:47;9.10;99.90
27633;DHT22;15046;50.930;13.334;2024-03-25T10:47:25;9.30;99.90
27633;DHT22;15046;50.930;13.334;2024-03-25T10:49:58;9.50;99.90
27633;DHT22;15046;50.930;13.334;2024-03-25T10:52:26;9.60;99.90
27633;DHT22;15046;50.930;13.334;2024-03-25T10:54:53;9.50;99.90
27633;DHT22;15046;50.930;13.334;2024-03-25T10:57:23;9.20;99.90
27633;DHT22;15046;50.930;13.334;2024-03-25T10:59:49;8.90;99.90
27633;DHT22;15046;50.930;13.334;2024-03-25T11:02:15;8.60;99.90
27633;DHT22;15046;50.930;13.334;2024-03-25T11:04:43;8.30;99.90
27633;DHT22;15046;50.930;13.334;2024-03-25T11:07:12;8.20;99.90
27633;DHT22;15046;50.930;13.334;2024-03-25T11:09:38;8.10;99.90
27633;DHT22;15046;50.930;13.334;2024-03-25T11:12:05;8.20;99.90
27633;DHT22;15046;50.930;13.334;2024-03-25T11:14:31;8.20;99.90
27633;DHT22;15046;50.930;13.334;2024-03-25T11:17:01;8.10;99.90
27633;DHT22;15046;50.930;13.334;2024-03-25T11:19:29;7.90;99.90
27633;DHT22;15046;50.930;13.334;2024-03-25T11:22:06;7.80;99.90
27633;DHT22;15046;50.930;13.334;2024-03-25T11:24:34;7.70;99.90
27633;DHT22;15046;50.930;13.334;2024-03-25T11:27:07;7.70;99.90
27633;DHT22;15046;50.930;13.334;2024-03-25T11:29:33;7.70;99.90
27633;DHT22;15046;50.930;13.334;2024-03-25T11:32:04;7.70;99.90
27633;DHT22;15046;50.930;13.334;2024-03-25T11:34:30;7.70;99.90
27633;DHT22;15046;50.930;13.334;2024-03-25T11:36:56;7.60;99.90
27633;DHT22;15046;50.930;13.334;2024-03-25T11:39:24;7.50;99.90
27633;DHT22;15046;50.930;13.334;2024-03-25T11:41:52;7.40;99.90
27633;DHT22;15046;50.930;13.334;2024-03-25T11:44:18;7.30;99.90
27633;DHT22;15046;50.930;13.334;2024-03-25T11:46:45;7.20;99.90
27633;DHT22;15046;50.930;13.334;2024-03-25T11:49:17;7.20;99.90
27633;DHT22;15046;50.930;13.334;2024-03-25T11:51:44;7.10;99.90
27633;DHT22;15046;50.930;13.334;2024-03-25T11:54:12;7.10;99.90
27633;DHT22;15046;50.930;13.334;2024-03-25T11:56:38;7.00;99.90
27633;DHT22;15046;50.930;13.334;2024-03-25T11:59:04;7.00;99.90
27633;DHT22;15046;50.930;13.334;2024-03-25T12:01:32;7.00;99.90
27633;DHT22;15046;50.930;13.334;2024-03-25T12:04:12;6.90;99.90
27633;DHT22;15046;50.930;13.334;2024-03-25T12:06:38;7.00;99.90
27633;DHT22;15046;50.930;13.334;2024-03-25T12:09:03;7.00;99.90
27633;DHT22;15046;50.930;13.334;2024-03-25T12:11:48;7.00;99.90
27633;DHT22;15046;50.930;13.334;2024-03-25T12:14:14;7.00;99.90
27633;DHT22;15046;50.930;13.334;2024-03-25T12:16:40;7.10;99.90
27633;DHT22;15046;50.930;13.334;2024-03-25T12:19:07;7.10;99.90
27633;DHT22;15046;50.930;13.334;2024-03-25T12:21:32;7.20;99.90
27633;DHT22;15046;50.930;13.334;2024-03-25T12:23:59;7.30;99.90
27633;DHT22;15046;50.930;13.334;2024-03-25T12:26:25;7.50;99.90
27633;DHT22;15046;50.930;13.334;2024-03-25T12:28:52;7.70;99.90
27633;DHT22;15046;50.930;13.334;2024-03-25T12:31:18;8.00;99.90
27633;DHT22;15046;50.930;13.334;2024-03-25T12:33:44;8.20;99.90
27633;DHT22;15046;50.930;13.334;2024-03-25T12:36:13;8.20;99.90
27633;DHT22;15046;50.930;13.334;2024-03-25T12:38:39;8.20;99.90
27633;DHT22;15046;50.930;13.334;2024-03-25T12:41:07;8.10;99.90
27633;DHT22;15046;50.930;13.334;2024-03-25T12:43:34;8.10;99.90
27633;DHT22;15046;50.930;13.334;2024-03-25T12:46:01;8.00;99.90
27633;DHT22;15046;50.930;13.334;2024-03-25T12:48:27;8.00;99.90
27633;DHT22;15046;50.930;13.334;2024-03-25T12:50:52;8.10;99.90
27633;DHT22;15046;50.930;13.334;2024-03-25T12:53:21;8.10;99.90
27633;DHT22;15046;50.930;13.334;2024-03-25T12:55:47;8.00;99.90
27633;DHT22;15046;50.930;13.334;2024-03-25T12:58:13;7.90;99.90
27633;DHT22;15046;50.930;13.334;2024-03-25T13:00:39;7.80;99.90
27633;DHT22;15046;50.930;13.334;2024-03-25T13:03:06;7.70;99.90
27633;DHT22;15046;50.930;13.334;2024-03-25T13:05:34;7.60;99.90
27633;DHT22;15046;50.930;13.334;2024-03-25T13:08:00;7.60;99.90
27633;DHT22;15046;50.930;13.334;2024-03-25T13:10:27;7.60;99.90
27633;DHT22;15046;50.930;13.334;2024-03-25T13:12:54;7.70;99.90
27633;DHT22;15046;50.930;13.334;2024-03-25T13:15:20;7.90;99.90
27633;DHT22;15046;50.930;13.334;2024-03-25T13:17:46;8.20;99.90
27633;DHT22;15046;50.930;13.334;2024-03-25T13:20:12;8.40;99.90
27633;DHT22;15046;50.930;13.334;2024-03-25T13:22:39;8.70;99.90
27633;DHT22;15046;50.930;13.334;2024-03-25T13:25:06;9.00;99.90
27633;DHT22;15046;50.930;13.334;2024-03-25T13:27:32;9.50;99.90
27633;DHT22;15046;50.930;13.334;2024-03-25T13:29:58;9.90;99.90
27633;DHT22;15046;50.930;13.334;2024-03-25T13:32:24;10.20;99.90
27633;DHT22;15046;50.930;13.334;2024-03-25T13:34:50;10.50;99.90
27633;DHT22;15046;50.930;13.334;2024-03-25T13:37:16;10.90;99.90
27633;DHT22;15046;50.930;13.334;2024-03-25T13:39:42;11.60;99.90
27633;DHT22;15046;50.930;13.334;2024-03-25T13:42:08;12.30;99.50
27633;DHT22;15046;50.930;13.334;2024-03-25T13:44:34;12.40;98.00
27633;DHT22;15046;50.930;13.334;2024-03-25T13:47:00;13.00;98.00
27633;DHT22;15046;50.930;13.334;2024-03-25T13:49:26;14.60;96.90
27633;DHT22;15046;50.930;13.334;2024-03-25T13:51:56;16.10;94.80
27633;DHT22;15046;50.930;13.334;2024-03-25T13:54:27;17.20;91.90
27633;DHT22;15046;50.930;13.334;2024-03-25T13:56:53;17.70;88.40
27633;DHT22;15046;50.930;13.334;2024-03-25T13:59:19;16.50;84.90
27633;DHT22;15046;50.930;13.334;2024-03-25T14:01:45;15.30;85.10
27633;DHT22;15046;50.930;13.334;2024-03-25T14:04:11;14.40;85.60
27633;DHT22;15046;50.930;13.334;2024-03-25T14:06:37;13.80;86.20
27633;DHT22;15046;50.930;13.334;2024-03-25T14:09:03;13.40;86.70
27633;DHT22;15046;50.930;13.334;2024-03-25T14:11:36;13.00;86.90
27633;DHT22;15046;50.930;13.334;2024-03-25T14:14:02;13.90;88.80
27633;DHT22;15046;50.930;13.334;2024-03-25T14:16:30;15.70;87.70
27633;DHT22;15046;50.930;13.334;2024-03-25T14:18:56;16.60;83.10
27633;DHT22;15046;50.930;13.334;2024-03-25T14:21:22;16.20;79.30
27633;DHT22;15046;50.930;13.334;2024-03-25T14:23:48;15.10;78.90
27633;DHT22;15046;50.930;13.334;2024-03-25T14:26:14;14.00;79.40
27633;DHT22;15046;50.930;13.334;2024-03-25T14:28:42;13.10;80.60
27633;DHT22;15046;50.930;13.334;2024-03-25T14:31:08;12.50;81.30
27633;DHT22;15046;50.930;13.334;2024-03-25T14:33:34;12.10;82.40
27633;DHT22;15046;50.930;13.334;2024-03-25T14:36:00;12.00;82.90
27633;DHT22;15046;50.930;13.334;2024-03-25T14:38:26;12.30;83.30
27633;DHT22;15046;50.930;13.334;2024-03-25T14:40:52;12.50;82.10
27633;DHT22;15046;50.930;13.334;2024-03-25T14:43:18;12.30;81.70
27633;DHT22;15046;50.930;13.334;2024-03-25T14:45:46;12.20;81.20
27633;DHT22;15046;50.930;13.334;2024-03-25T14:48:12;12.50;81.10
27633;DHT22;15046;50.930;13.334;2024-03-25T14:50:38;13.40;80.00
27633;DHT22;15046;50.930;13.334;2024-03-25T14:53:04;14.40;78.80
27633;DHT22;15046;50.930;13.334;2024-03-25T14:55:30;15.40;76.80
27633;DHT22;15046;50.930;13.334;2024-03-25T14:57:56;15.80;73.60
27633;DHT22;15046;50.930;13.334;2024-03-25T15:00:22;15.10;71.70
27633;DHT22;15046;50.930;13.334;2024-03-25T15:02:53;14.10;71.80
27633;DHT22;15046;50.930;13.334;2024-03-25T15:05:19;13.20;73.30
27633;DHT22;15046;50.930;13.334;2024-03-25T15:07:46;12.80;74.70
27633;DHT22;15046;50.930;13.334;2024-03-25T15:10:13;12.50;75.40
27633;DHT22;15046;50.930;13.334;2024-03-25T15:12:39;12.20;75.90
27633;DHT22;15046;50.930;13.334;2024-03-25T15:15:06;11.90;77.00
27633;DHT22;15046;50.930;13.334;2024-03-25T15:17:34;11.80;77.60
27633;DHT22;15046;50.930;13.334;2024-03-25T15:20:00;11.60;78.00
27633;DHT22;15046;50.930;13.334;2024-03-25T15:22:26;11.40;78.50
27633;DHT22;15046;50.930;13.334;2024-03-25T15:24:52;11.30;79.00
27633;DHT22;15046;50.930;13.334;2024-03-25T15:27:18;12.00;79.20